Terminal Aerodrome Forecast
Issued by NWS

Home | Current Version | Previous Version | Text Only | Print | Product List | Glossary On
Versions: 1 2 3 4 5 6 7 8 9 10 11 12 13 14 15 16 17
000
FTUS41 KBTV 201500 AAB
TAFMPV
TAF AMD
KMPV 201525Z 2015/2112 19010KT P6SM OVC015
     FM201900 18012G22KT P6SM OVC020
     FM210500 19009KT 4SM BR BKN025=

USA.gov is the U.S. government's official web portal to all federal, state and local government web resources and services.